Time;durP1;ratioP1;P1;durP2;ratioP2;P2;SDS_P1;SDS_P2;PMS_P1;PMS_P2;Temp;Humidity;BMP_temperature;BMP_pressure;BME280_temperature;BME280_humidity;BME280_pressure;Samples;Min_cycle;Max_cycle;Signal;HPM_P1;HPM_P2
2023/12/26 00:01:45;;;;;;;0.50;0.50;;;12.40;99.90;;;;;;5139168;27;20442;-66
2023/12/26 00:04:12;;;;;;;0.70;0.53;;;12.40;99.90;;;;;;5139039;27;20484;-65
2023/12/26 00:06:43;;;;;;;0.80;0.50;;;12.30;99.90;;;;;;5138780;27;20538;-66
2023/12/26 00:09:12;;;;;;;0.40;0.40;;;12.30;99.90;;;;;;5139068;27;20438;-66
2023/12/26 00:11:42;;;;;;;0.57;0.50;;;12.30;99.90;;;;;;5138963;27;20460;-66
2023/12/26 00:14:09;;;;;;;1.47;0.60;;;12.30;99.90;;;;;;5140214;27;20434;-66
2023/12/26 00:16:36;;;;;;;1.70;0.70;;;12.30;99.90;;;;;;5139467;27;20473;-66
2023/12/26 00:19:03;;;;;;;0.93;0.50;;;12.20;99.90;;;;;;5140174;27;20437;-66
2023/12/26 00:21:30;;;;;;;1.93;0.60;;;12.20;99.90;;;;;;5139607;27;20434;-65
2023/12/26 00:23:57;;;;;;;0.80;0.50;;;12.10;99.90;;;;;;5138470;27;20480;-66
2023/12/26 00:26:25;;;;;;;1.27;0.70;;;12.10;99.90;;;;;;5139000;27;20452;-66
2023/12/26 00:28:53;;;;;;;1.90;1.23;;;12.10;99.90;;;;;;5138478;27;20521;-66
2023/12/26 00:31:20;;;;;;;0.50;0.50;;;12.00;99.90;;;;;;5139516;27;20473;-66
2023/12/26 00:33:48;;;;;;;0.50;0.50;;;12.10;99.90;;;;;;5138663;27;20533;-65
2023/12/26 00:36:17;;;;;;;0.63;0.50;;;12.00;99.90;;;;;;5103845;27;20807;-66
2023/12/26 00:38:44;;;;;;;0.50;0.50;;;12.00;99.90;;;;;;5138838;27;20538;-66
2023/12/26 00:41:11;;;;;;;0.87;0.63;;;12.00;99.90;;;;;;5138501;27;20990;-66
2023/12/26 00:43:39;;;;;;;0.60;0.60;;;12.10;99.90;;;;;;5137424;27;20847;-66
2023/12/26 00:46:07;;;;;;;0.80;0.73;;;12.10;99.90;;;;;;5138971;27;20449;-66
2023/12/26 00:48:36;;;;;;;0.60;0.60;;;12.10;99.90;;;;;;5150901;27;20438;-65
2023/12/26 00:51:04;;;;;;;1.70;0.40;;;12.10;99.90;;;;;;5139496;27;20458;-66
2023/12/26 00:53:30;;;;;;;1.47;0.70;;;12.10;99.90;;;;;;5139258;27;20479;-66
2023/12/26 00:55:57;;;;;;;1.10;0.80;;;12.10;99.90;;;;;;5137703;27;20952;-66
2023/12/26 00:58:24;;;;;;;1.13;1.03;;;12.10;99.90;;;;;;5136930;27;20838;-66
2023/12/26 01:00:52;;;;;;;1.50;0.77;;;12.10;99.90;;;;;;5136413;27;20466;-66
2023/12/26 01:03:22;;;;;;;0.90;0.60;;;12.10;99.90;;;;;;5137271;27;20537;-66
2023/12/26 01:05:49;;;;;;;0.70;0.63;;;12.00;99.90;;;;;;5119328;27;20537;-66
2023/12/26 01:08:16;;;;;;;2.50;0.60;;;12.00;99.90;;;;;;5137787;27;20442;-66
2023/12/26 01:10:44;;;;;;;1.37;0.67;;;11.90;99.90;;;;;;5137276;27;21044;-66
2023/12/26 01:13:10;;;;;;;0.50;0.47;;;12.00;99.90;;;;;;5137431;27;20811;-66
2023/12/26 01:15:39;;;;;;;1.03;1.03;;;11.90;99.90;;;;;;5138135;27;20438;-66
2023/12/26 01:18:07;;;;;;;0.87;0.67;;;11.90;99.90;;;;;;5137918;27;20449;-66
2023/12/26 01:20:34;;;;;;;1.07;0.87;;;11.90;99.90;;;;;;5138380;27;20458;-66
2023/12/26 01:23:02;;;;;;;0.83;0.57;;;11.90;99.90;;;;;;5120446;27;20430;-66
2023/12/26 01:25:30;;;;;;;0.73;0.63;;;11.80;99.90;;;;;;5138544;27;20538;-65
2023/12/26 01:27:57;;;;;;;0.90;0.70;;;11.80;99.90;;;;;;5138287;27;20962;-65
2023/12/26 01:30:24;;;;;;;0.50;0.50;;;11.80;99.90;;;;;;5138529;27;20466;-65
2023/12/26 01:32:51;;;;;;;2.57;0.80;;;11.80;99.90;;;;;;5138463;27;20438;-66
2023/12/26 01:35:19;;;;;;;0.73;0.60;;;11.80;99.90;;;;;;5138338;27;20517;-66
2023/12/26 01:37:48;;;;;;;0.70;0.53;;;11.80;99.90;;;;;;5140072;27;20787;-66
2023/12/26 01:40:16;;;;;;;1.63;0.50;;;11.80;99.90;;;;;;5138842;27;20465;-66
2023/12/26 01:42:45;;;;;;;3.73;0.60;;;11.80;99.90;;;;;;5140073;27;20434;-65
2023/12/26 01:45:12;;;;;;;0.80;0.60;;;11.70;99.90;;;;;;5139746;27;20476;-65
2023/12/26 01:47:39;;;;;;;1.20;0.50;;;11.60;99.90;;;;;;5139649;27;20442;-65
2023/12/26 01:50:07;;;;;;;0.70;0.70;;;11.60;99.90;;;;;;5139568;27;20468;-65
2023/12/26 01:52:38;;;;;;;1.80;0.60;;;11.50;99.90;;;;;;5139523;27;20434;-65
2023/12/26 01:55:06;;;;;;;0.77;0.77;;;11.40;99.90;;;;;;5139866;27;20451;-65
2023/12/26 01:57:35;;;;;;;2.30;0.80;;;11.40;99.90;;;;;;5139842;27;20446;-64
2023/12/26 02:00:03;;;;;;;1.80;0.70;;;11.30;99.90;;;;;;5139551;27;20504;-65
2023/12/26 02:02:32;;;;;;;2.30;0.97;;;11.20;99.90;;;;;;5139801;27;20434;-65
2023/12/26 02:05:00;;;;;;;0.80;0.60;;;11.20;99.90;;;;;;5140339;27;20469;-65
2023/12/26 02:07:27;;;;;;;0.83;0.70;;;11.10;99.90;;;;;;5138713;27;20438;-65
2023/12/26 02:09:55;;;;;;;2.20;1.00;;;11.10;99.90;;;;;;5138926;27;20454;-64
2023/12/26 02:12:22;;;;;;;4.03;0.93;;;11.00;99.90;;;;;;5139379;27;20442;-65
2023/12/26 02:14:50;;;;;;;2.50;1.37;;;11.00;99.90;;;;;;5138553;27;20449;-64
2023/12/26 02:17:22;;;;;;;5.13;1.17;;;11.00;99.90;;;;;;5138515;27;20452;-64
2023/12/26 02:19:48;;;;;;;0.80;0.80;;;11.00;99.90;;;;;;5138649;27;20829;-64
2023/12/26 02:22:15;;;;;;;2.07;0.80;;;11.00;99.90;;;;;;5138163;27;20446;-64
2023/12/26 02:24:44;;;;;;;3.23;1.00;;;10.90;99.90;;;;;;5139069;27;20478;-64
2023/12/26 02:27:15;;;;;;;0.63;0.63;;;10.90;99.90;;;;;;5139021;27;20434;-64
2023/12/26 02:29:43;;;;;;;2.73;1.10;;;11.00;99.90;;;;;;5138813;27;20473;-64
2023/12/26 02:32:11;;;;;;;1.87;1.17;;;10.90;99.90;;;;;;5137970;27;20442;-64
2023/12/26 02:34:39;;;;;;;1.80;1.00;;;10.90;99.90;;;;;;5138010;28;20438;-64
2023/12/26 02:37:05;;;;;;;1.23;0.70;;;10.90;99.90;;;;;;5139410;28;20441;-64
2023/12/26 02:39:32;;;;;;;2.50;0.87;;;10.90;99.90;;;;;;5138012;28;20466;-64
2023/12/26 02:42:00;;;;;;;1.27;0.80;;;10.90;99.90;;;;;;5138237;28;20849;-64
2023/12/26 02:44:29;;;;;;;2.53;1.00;;;10.90;99.90;;;;;;5138263;28;20477;-64
2023/12/26 02:46:56;;;;;;;2.43;0.77;;;10.80;99.90;;;;;;5138096;28;20487;-65
2023/12/26 02:49:23;;;;;;;2.17;0.80;;;10.80;99.90;;;;;;5138110;28;20554;-64
2023/12/26 02:51:50;;;;;;;0.90;0.90;;;10.90;99.90;;;;;;5138714;28;20429;-64
2023/12/26 02:54:17;;;;;;;3.90;0.77;;;10.90;99.90;;;;;;5138677;28;20434;-65
2023/12/26 02:56:44;;;;;;;1.20;0.90;;;10.90;99.90;;;;;;5141243;28;20456;-64
2023/12/26 02:59:12;;;;;;;2.27;0.83;;;10.90;99.90;;;;;;5138265;28;20466;-65
2023/12/26 03:01:39;;;;;;;1.80;1.27;;;10.80;99.90;;;;;;5135707;28;20465;-65
2023/12/26 03:04:06;;;;;;;1.50;1.03;;;10.80;99.90;;;;;;5136156;28;20503;-64
2023/12/26 03:06:32;;;;;;;3.20;1.20;;;10.80;99.90;;;;;;5136158;27;20438;-64
2023/12/26 03:08:59;;;;;;;3.73;1.53;;;10.80;99.90;;;;;;5140464;27;20438;-64
2023/12/26 03:11:27;;;;;;;1.30;1.20;;;10.90;99.90;;;;;;5141391;27;20452;-65
2023/12/26 03:13:53;;;;;;;5.77;1.50;;;10.90;99.90;;;;;;5141756;27;20456;-65
2023/12/26 03:16:22;;;;;;;1.20;1.00;;;10.90;99.90;;;;;;5142427;27;20449;-65
2023/12/26 03:18:49;;;;;;;2.73;0.90;;;10.80;99.90;;;;;;5142242;27;20442;-64
2023/12/26 03:21:16;;;;;;;2.90;0.80;;;10.80;99.90;;;;;;5142343;27;20472;-64
2023/12/26 03:23:42;;;;;;;4.20;1.00;;;10.80;99.90;;;;;;5123829;27;20501;-65
2023/12/26 03:26:09;;;;;;;2.33;1.30;;;10.80;99.90;;;;;;5142562;27;20473;-65
2023/12/26 03:28:36;;;;;;;2.70;1.23;;;10.90;99.90;;;;;;5142490;27;20930;-65
2023/12/26 03:31:03;;;;;;;2.20;1.10;;;11.00;99.90;;;;;;5142032;27;20464;-65
2023/12/26 03:33:31;;;;;;;1.10;1.00;;;11.00;99.90;;;;;;5141094;27;20464;-65
2023/12/26 03:35:58;;;;;;;1.90;0.87;;;10.90;99.90;;;;;;5147903;27;20962;-65
2023/12/26 03:38:25;;;;;;;1.77;1.10;;;10.90;99.90;;;;;;5146055;27;20438;-65
2023/12/26 03:40:57;;;;;;;3.83;1.50;;;10.90;99.90;;;;;;5144987;27;20468;-65
2023/12/26 03:43:24;;;;;;;2.67;1.43;;;10.90;99.90;;;;;;5144797;27;20499;-65
2023/12/26 03:45:51;;;;;;;2.50;1.50;;;10.90;99.90;;;;;;5144198;27;20513;-65
2023/12/26 03:48:19;;;;;;;2.37;1.50;;;10.90;99.90;;;;;;5124940;27;20467;-65
2023/12/26 03:50:47;;;;;;;1.47;1.20;;;10.90;99.90;;;;;;5142932;27;20465;-65
2023/12/26 03:53:15;;;;;;;1.73;1.13;;;10.90;99.90;;;;;;5142293;27;20442;-65
2023/12/26 03:55:41;;;;;;;4.73;1.90;;;10.90;99.90;;;;;;5123734;27;20498;-65
2023/12/26 03:58:08;;;;;;;1.60;1.23;;;10.90;99.90;;;;;;5142045;27;20449;-65
2023/12/26 04:00:35;;;;;;;2.97;1.77;;;10.90;99.90;;;;;;5141427;27;20458;-65
2023/12/26 04:03:02;;;;;;;2.80;1.70;;;10.90;99.90;;;;;;5140599;27;20453;-65
2023/12/26 04:05:29;;;;;;;4.10;1.70;;;10.90;99.90;;;;;;5141609;27;20482;-65
2023/12/26 04:07:57;;;;;;;2.30;2.00;;;10.90;99.90;;;;;;5141443;27;20521;-65
2023/12/26 04:10:23;;;;;;;3.17;1.40;;;10.90;99.90;;;;;;5140956;27;20461;-65
2023/12/26 04:12:51;;;;;;;3.43;1.90;;;10.90;99.90;;;;;;5140654;27;20442;-66
2023/12/26 04:15:18;;;;;;;2.87;1.70;;;10.90;99.90;;;;;;5140306;27;20292;-65
2023/12/26 04:17:45;;;;;;;8.27;1.77;;;10.80;99.90;;;;;;5139697;27;20452;-65
2023/12/26 04:20:12;;;;;;;5.07;2.20;;;10.80;99.90;;;;;;5138637;27;21012;-65
2023/12/26 04:22:39;;;;;;;4.30;1.57;;;10.80;99.90;;;;;;5140539;27;20444;-65
2023/12/26 04:25:08;;;;;;;3.90;1.77;;;10.90;99.90;;;;;;5140714;27;21013;-65
2023/12/26 04:27:35;;;;;;;3.90;1.70;;;10.80;99.90;;;;;;5122770;27;20939;-65
2023/12/26 04:30:02;;;;;;;5.93;2.00;;;10.80;99.90;;;;;;5140229;27;20464;-65
2023/12/26 04:32:29;;;;;;;3.23;1.60;;;10.70;99.90;;;;;;5140261;27;21027;-65
2023/12/26 04:34:56;;;;;;;4.27;1.57;;;10.80;99.90;;;;;;5140593;27;20462;-65
2023/12/26 04:37:26;;;;;;;3.70;1.80;;;10.80;99.90;;;;;;5141127;27;20467;-65
2023/12/26 04:39:52;;;;;;;1.90;1.50;;;10.70;99.90;;;;;;5140725;27;20472;-65
2023/12/26 04:42:20;;;;;;;5.10;2.10;;;10.80;99.90;;;;;;5140137;27;20450;-65
2023/12/26 04:44:47;;;;;;;3.43;2.70;;;10.80;99.90;;;;;;5140825;27;20481;-65
2023/12/26 04:47:14;;;;;;;2.77;2.30;;;10.80;99.90;;;;;;5140449;27;20438;-65
2023/12/26 04:49:41;;;;;;;5.80;2.30;;;10.90;99.90;;;;;;5140233;27;20978;-65
2023/12/26 04:52:08;;;;;;;5.33;2.20;;;10.90;99.90;;;;;;5140305;27;20469;-65
2023/12/26 04:54:35;;;;;;;9.53;2.30;;;10.80;99.90;;;;;;5140030;27;20441;-64
2023/12/26 04:57:02;;;;;;;3.80;1.90;;;10.80;99.90;;;;;;5141205;27;20433;-65
2023/12/26 04:59:30;;;;;;;3.20;1.70;;;10.90;99.90;;;;;;5140565;27;20830;-65
2023/12/26 05:01:57;;;;;;;7.93;2.00;;;10.90;99.90;;;;;;5140634;27;20947;-65
2023/12/26 05:04:23;;;;;;;4.03;1.70;;;10.90;99.90;;;;;;5140747;27;20441;-65
2023/12/26 05:06:50;;;;;;;3.03;1.57;;;10.90;99.90;;;;;;5142788;27;20434;-65
2023/12/26 05:09:17;;;;;;;3.67;2.20;;;11.00;99.90;;;;;;5139504;27;20458;-65
2023/12/26 05:11:44;;;;;;;3.80;1.77;;;11.00;99.90;;;;;;5138737;27;20442;-66
2023/12/26 05:14:11;;;;;;;3.37;1.40;;;11.00;99.90;;;;;;5138582;27;20958;-65
2023/12/26 05:16:42;;;;;;;4.80;1.63;;;11.00;99.90;;;;;;5139426;27;20436;-65
2023/12/26 05:19:09;;;;;;;6.13;1.47;;;11.00;99.90;;;;;;5138872;27;20423;-65
2023/12/26 05:21:36;;;;;;;2.43;1.33;;;11.00;99.90;;;;;;5139414;27;20438;-65
2023/12/26 05:24:04;;;;;;;3.87;1.43;;;11.00;99.90;;;;;;5140268;27;20444;-66
2023/12/26 05:26:31;;;;;;;3.30;1.30;;;11.00;99.90;;;;;;5138882;27;21010;-65
2023/12/26 05:28:58;;;;;;;1.80;1.10;;;11.00;99.90;;;;;;5139189;27;20473;-65
2023/12/26 05:31:25;;;;;;;3.30;1.23;;;11.00;99.90;;;;;;5139963;27;20446;-65
2023/12/26 05:33:53;;;;;;;3.03;1.20;;;11.00;99.90;;;;;;5141492;27;20445;-65
2023/12/26 05:36:20;;;;;;;2.60;1.27;;;11.00;99.90;;;;;;5140799;27;20438;-65
2023/12/26 05:38:47;;;;;;;4.40;2.10;;;11.00;99.90;;;;;;5140573;27;20437;-65
2023/12/26 05:41:13;;;;;;;3.27;1.50;;;10.90;99.90;;;;;;5141222;27;20462;-66
2023/12/26 05:43:41;;;;;;;2.60;1.47;;;11.00;99.90;;;;;;5141082;27;20449;-65
2023/12/26 05:46:08;;;;;;;7.17;1.80;;;10.90;99.90;;;;;;5141020;27;20473;-66
2023/12/26 05:48:35;;;;;;;2.03;1.60;;;11.00;99.90;;;;;;5122429;27;20453;-65
2023/12/26 05:51:07;;;;;;;3.57;1.70;;;11.00;99.90;;;;;;5122649;27;20466;-65
2023/12/26 05:53:35;;;;;;;10.90;1.43;;;11.00;99.90;;;;;;5121997;27;20446;-65
2023/12/26 05:56:02;;;;;;;5.57;1.13;;;11.00;99.90;;;;;;5140199;27;20453;-66
2023/12/26 05:58:28;;;;;;;4.33;1.03;;;10.90;99.90;;;;;;5139005;27;20985;-65
2023/12/26 06:00:55;;;;;;;2.20;1.13;;;10.90;99.90;;;;;;5139823;27;20454;-66
2023/12/26 06:03:22;;;;;;;2.30;1.00;;;10.90;99.90;;;;;;5139403;27;20441;-66
2023/12/26 06:05:49;;;;;;;1.83;1.10;;;10.90;99.90;;;;;;5139713;27;20482;-66
2023/12/26 06:08:18;;;;;;;3.73;1.47;;;10.90;99.90;;;;;;5138845;27;20442;-65
2023/12/26 06:10:44;;;;;;;1.93;1.20;;;11.00;99.90;;;;;;5137751;27;20458;-66
2023/12/26 06:13:11;;;;;;;5.83;1.20;;;11.00;99.90;;;;;;5137370;27;20441;-66
2023/12/26 06:15:38;;;;;;;4.53;1.43;;;11.00;99.90;;;;;;5136404;27;20462;-66
2023/12/26 06:18:05;;;;;;;1.83;1.33;;;10.90;99.90;;;;;;5135857;27;20528;-66
2023/12/26 06:20:32;;;;;;;1.90;1.30;;;11.00;99.90;;;;;;5135640;27;20470;-66
2023/12/26 06:22:59;;;;;;;3.13;1.53;;;11.00;99.90;;;;;;5137176;27;20449;-65
2023/12/26 06:25:27;;;;;;;1.87;1.40;;;11.10;99.90;;;;;;5118401;28;20831;-66
2023/12/26 06:27:53;;;;;;;3.27;1.07;;;11.00;99.90;;;;;;5136823;27;20449;-66
2023/12/26 06:30:20;;;;;;;3.13;1.30;;;11.00;99.90;;;;;;5137247;27;20472;-65
2023/12/26 06:32:47;;;;;;;2.97;1.30;;;11.00;99.90;;;;;;5137725;27;20434;-66
2023/12/26 06:35:17;;;;;;;4.10;1.60;;;11.00;99.90;;;;;;5137416;27;20444;-66
2023/12/26 06:37:44;;;;;;;4.30;1.70;;;11.00;99.90;;;;;;5138038;28;20437;-65
2023/12/26 06:40:11;;;;;;;5.60;1.60;;;11.00;99.90;;;;;;5137869;28;20460;-65
2023/12/26 06:42:40;;;;;;;2.20;1.30;;;11.10;99.90;;;;;;5139553;27;20822;-65
2023/12/26 06:45:07;;;;;;;2.70;1.60;;;11.10;99.90;;;;;;5142305;27;20822;-66
2023/12/26 06:47:34;;;;;;;2.83;1.40;;;11.00;99.90;;;;;;5141446;27;20533;-66
2023/12/26 06:50:01;;;;;;;2.23;1.53;;;11.00;99.90;;;;;;5142064;27;20462;-65
2023/12/26 06:52:28;;;;;;;3.63;1.17;;;11.00;99.90;;;;;;5142269;27;20442;-66
2023/12/26 06:54:54;;;;;;;5.00;1.40;;;11.00;99.90;;;;;;5142063;27;20483;-66
2023/12/26 06:57:21;;;;;;;6.70;1.90;;;11.00;99.90;;;;;;5142297;27;20445;-65
2023/12/26 06:59:53;;;;;;;2.47;1.13;;;11.00;99.90;;;;;;5142156;27;20466;-65
2023/12/26 07:02:19;;;;;;;2.00;1.23;;;11.00;99.90;;;;;;5141994;27;20422;-66
2023/12/26 07:04:46;;;;;;;2.77;1.50;;;11.00;99.90;;;;;;5141942;27;20438;-66
2023/12/26 07:07:13;;;;;;;4.63;1.80;;;11.00;99.90;;;;;;5142026;27;20477;-65
2023/12/26 07:09:40;;;;;;;2.10;1.47;;;11.10;99.90;;;;;;5142240;27;20464;-66
2023/12/26 07:12:08;;;;;;;3.73;2.07;;;11.00;99.90;;;;;;5141818;27;20433;-66
2023/12/26 07:14:35;;;;;;;3.00;1.50;;;11.10;99.90;;;;;;5124510;27;20448;-65
2023/12/26 07:17:04;;;;;;;4.03;1.70;;;11.00;99.90;;;;;;5148357;27;20987;-65
2023/12/26 07:19:31;;;;;;;3.50;1.53;;;11.00;99.90;;;;;;5140371;27;20541;-66
2023/12/26 07:21:59;;;;;;;6.00;1.80;;;11.00;99.90;;;;;;5139681;27;20950;-66
2023/12/26 07:24:26;;;;;;;2.70;1.57;;;11.00;99.90;;;;;;5140168;27;20437;-66
2023/12/26 07:26:52;;;;;;;6.20;2.20;;;11.00;99.90;;;;;;5140236;27;20477;-66
2023/12/26 07:29:19;;;;;;;7.40;3.30;;;11.00;99.90;;;;;;5140974;27;20476;-65
2023/12/26 07:31:46;;;;;;;2.93;2.67;;;11.00;99.90;;;;;;5140212;27;20464;-66
2023/12/26 07:34:14;;;;;;;2.60;1.70;;;11.00;99.90;;;;;;5138616;27;20442;-66
2023/12/26 07:36:41;;;;;;;5.70;1.83;;;11.00;99.90;;;;;;5138950;27;20434;-66
2023/12/26 07:39:08;;;;;;;4.17;2.00;;;11.10;99.90;;;;;;5138334;27;20437;-66
2023/12/26 07:41:35;;;;;;;5.83;2.03;;;11.10;99.90;;;;;;5138210;27;20438;-66
2023/12/26 07:44:02;;;;;;;3.50;2.17;;;11.10;99.90;;;;;;5138794;27;20813;-66
2023/12/26 07:46:28;;;;;;;2.97;1.97;;;11.10;99.90;;;;;;5138698;27;20576;-66
2023/12/26 07:48:55;;;;;;;7.73;2.53;;;11.10;99.90;;;;;;5139034;27;20815;-66
2023/12/26 07:51:25;;;;;;;5.77;2.37;;;11.10;99.90;;;;;;5138900;27;20550;-65
2023/12/26 07:53:53;;;;;;;4.13;2.70;;;11.10;99.90;;;;;;5138350;27;20471;-65
2023/12/26 07:56:20;;;;;;;6.10;2.20;;;11.10;99.90;;;;;;5138800;27;20454;-65
2023/12/26 07:58:46;;;;;;;3.93;2.30;;;11.10;99.90;;;;;;5120765;27;20442;-65
2023/12/26 08:01:13;;;;;;;4.07;2.83;;;11.20;99.90;;;;;;5140360;27;20458;-64
2023/12/26 08:03:40;;;;;;;3.83;2.10;;;11.20;99.90;;;;;;5138970;27;20448;-65
2023/12/26 08:06:07;;;;;;;8.27;3.00;;;11.20;99.90;;;;;;5120873;27;20840;-65
2023/12/26 08:08:36;;;;;;;5.57;2.93;;;11.20;99.90;;;;;;5139285;27;20442;-65
2023/12/26 08:11:03;;;;;;;3.80;2.33;;;11.20;99.90;;;;;;5139576;27;20479;-65
2023/12/26 08:13:31;;;;;;;5.13;2.60;;;11.20;99.90;;;;;;5139878;27;20808;-66
2023/12/26 08:15:58;;;;;;;4.80;2.37;;;11.20;99.90;;;;;;5139731;27;20438;-65
2023/12/26 08:18:25;;;;;;;4.70;2.63;;;11.20;99.90;;;;;;5139956;27;20437;-66
2023/12/26 08:20:51;;;;;;;8.83;3.40;;;11.30;99.90;;;;;;5121182;27;20466;-65
2023/12/26 08:23:18;;;;;;;5.50;2.93;;;11.20;99.90;;;;;;5140059;27;20539;-65
2023/12/26 08:25:46;;;;;;;6.70;2.40;;;11.20;99.90;;;;;;5139519;27;20481;-65
2023/12/26 08:28:13;;;;;;;5.13;3.20;;;11.20;99.90;;;;;;5139590;27;20453;-65
2023/12/26 08:30:40;;;;;;;5.03;2.13;;;11.20;99.90;;;;;;5139857;27;20466;-65
2023/12/26 08:33:07;;;;;;;8.77;2.17;;;11.20;99.90;;;;;;5139660;27;20816;-65
2023/12/26 08:35:34;;;;;;;5.07;2.07;;;11.10;99.90;;;;;;5141232;27;20509;-66
2023/12/26 08:38:01;;;;;;;3.30;2.07;;;11.20;99.90;;;;;;5141019;27;20482;-65
2023/12/26 08:40:28;;;;;;;7.60;2.20;;;11.20;99.90;;;;;;5139739;27;20458;-65
2023/12/26 08:42:56;;;;;;;10.43;3.00;;;11.20;99.90;;;;;;5140338;27;20438;-65
2023/12/26 08:45:23;;;;;;;6.80;2.10;;;11.20;99.90;;;;;;5141099;27;20525;-66
2023/12/26 08:47:52;;;;;;;3.77;2.07;;;11.20;99.90;;;;;;5139604;27;20521;-66
2023/12/26 08:50:19;;;;;;;6.07;2.77;;;11.20;99.90;;;;;;5138847;27;20831;-66
2023/12/26 08:52:46;;;;;;;6.70;2.60;;;11.30;99.90;;;;;;5137672;27;20814;-66
2023/12/26 08:55:13;;;;;;;5.17;3.27;;;11.30;99.90;;;;;;5137322;27;20818;-66
2023/12/26 08:57:40;;;;;;;3.70;2.70;;;11.30;99.90;;;;;;5138373;27;20521;-66
2023/12/26 09:00:12;;;;;;;6.33;2.77;;;11.40;99.90;;;;;;5139187;27;20557;-65
2023/12/26 09:02:39;;;;;;;6.57;2.37;;;11.40;99.90;;;;;;5138851;27;20434;-65
2023/12/26 09:05:10;;;;;;;8.47;4.20;;;11.40;99.90;;;;;;5120321;27;20448;-65
2023/12/26 09:07:37;;;;;;;5.00;3.07;;;11.40;99.90;;;;;;5139190;27;21045;-66
2023/12/26 09:10:04;;;;;;;12.40;3.47;;;11.40;99.90;;;;;;5138569;27;20461;-65
2023/12/26 09:12:35;;;;;;;5.40;3.30;;;11.40;99.90;;;;;;5138496;27;20452;-65
2023/12/26 09:15:02;;;;;;;4.83;3.70;;;11.30;99.90;;;;;;5140188;27;20446;-65
2023/12/26 09:17:30;;;;;;;9.60;3.70;;;11.30;99.90;;;;;;5141641;27;20788;-66
2023/12/26 09:19:57;;;;;;;6.83;3.43;;;11.40;99.90;;;;;;5141324;27;20549;-65
2023/12/26 09:22:26;;;;;;;13.60;3.53;;;11.40;99.90;;;;;;5141273;27;20472;-66
2023/12/26 09:24:53;;;;;;;10.50;3.27;;;11.40;99.90;;;;;;5144702;27;20542;-65
2023/12/26 09:27:20;;;;;;;8.50;3.47;;;11.50;99.90;;;;;;5143692;27;20899;-65
2023/12/26 09:29:47;;;;;;;7.93;2.93;;;11.50;99.90;;;;;;5140561;27;20463;-65
2023/12/26 09:32:13;;;;;;;7.60;3.47;;;11.50;99.90;;;;;;5139282;27;20455;-66
2023/12/26 09:34:41;;;;;;;4.43;3.10;;;11.50;99.90;;;;;;5140668;27;20957;-66
2023/12/26 09:37:08;;;;;;;6.47;3.57;;;11.60;99.90;;;;;;5140594;27;20442;-66
2023/12/26 09:39:37;;;;;;;6.83;2.70;;;11.60;99.90;;;;;;5141041;27;20472;-65
2023/12/26 09:42:05;;;;;;;5.60;3.10;;;11.70;99.90;;;;;;5140507;27;20449;-66
2023/12/26 09:44:33;;;;;;;7.80;3.40;;;11.70;99.90;;;;;;5141137;27;20830;-66
2023/12/26 09:47:00;;;;;;;7.23;3.27;;;11.60;99.90;;;;;;5140519;27;20473;-66
2023/12/26 09:49:27;;;;;;;7.40;3.33;;;11.60;99.90;;;;;;5141099;27;20469;-66
2023/12/26 09:51:58;;;;;;;10.70;3.43;;;11.50;99.90;;;;;;5138937;27;20453;-65
2023/12/26 09:54:27;;;;;;;6.23;2.90;;;11.40;99.90;;;;;;5139560;27;20446;-66
2023/12/26 09:56:53;;;;;;;5.23;3.00;;;11.30;99.90;;;;;;5141289;27;20422;-65
2023/12/26 09:59:24;;;;;;;5.67;2.43;;;11.30;99.90;;;;;;5139627;27;20986;-66
2023/12/26 10:01:51;;;;;;;9.33;3.40;;;11.20;99.90;;;;;;5139318;27;20422;-66
2023/12/26 10:04:19;;;;;;;5.33;2.53;;;11.30;99.90;;;;;;5139376;27;20438;-66
2023/12/26 10:06:45;;;;;;;5.73;2.27;;;11.40;99.90;;;;;;5138636;27;20478;-65
2023/12/26 10:09:14;;;;;;;9.00;2.40;;;11.50;99.90;;;;;;5137989;27;20468;-65
2023/12/26 10:11:43;;;;;;;4.70;2.20;;;11.50;99.90;;;;;;5138505;27;20445;-66
2023/12/26 10:14:10;;;;;;;7.73;2.13;;;11.50;99.90;;;;;;5137645;27;20441;-66
2023/12/26 10:16:38;;;;;;;3.53;1.83;;;11.60;99.90;;;;;;5137362;27;20445;-66
2023/12/26 10:19:12;;;;;;;8.50;2.17;;;11.60;99.90;;;;;;5120713;27;20446;-66
2023/12/26 10:21:41;;;;;;;7.80;2.33;;;11.50;99.90;;;;;;5138266;27;20922;-66
2023/12/26 10:24:11;;;;;;;10.53;1.90;;;11.50;99.90;;;;;;5138926;27;20509;-66
2023/12/26 10:26:39;;;;;;;8.53;1.83;;;11.60;99.90;;;;;;5138735;27;20473;-66
2023/12/26 10:29:07;;;;;;;9.70;2.50;;;11.60;99.90;;;;;;5119841;28;20446;-66
2023/12/26 10:31:33;;;;;;;10.23;1.87;;;11.70;99.90;;;;;;5138152;27;20856;-66
2023/12/26 10:34:14;;;;;;;10.40;1.97;;;11.70;99.90;;;;;;5138321;27;20442;-65
2023/12/26 10:36:42;;;;;;;5.30;2.10;;;11.80;99.90;;;;;;5138962;27;20422;-66
2023/12/26 10:39:10;;;;;;;4.43;1.60;;;12.00;99.90;;;;;;5119479;28;20791;-66
2023/12/26 10:41:39;;;;;;;6.20;2.00;;;12.10;99.90;;;;;;5138565;28;20453;-66
2023/12/26 10:44:07;;;;;;;8.40;1.87;;;12.10;99.90;;;;;;5138018;28;20450;-66
2023/12/26 10:46:35;;;;;;;10.27;1.83;;;11.90;99.90;;;;;;5138943;28;20482;-65
2023/12/26 10:49:05;;;;;;;12.00;1.90;;;11.80;99.90;;;;;;5119813;28;20787;-66
2023/12/26 10:51:33;;;;;;;10.73;2.43;;;11.60;99.90;;;;;;5138268;28;20429;-65
2023/12/26 10:54:08;;;;;;;6.73;1.67;;;11.40;99.90;;;;;;5138256;28;20448;-65
2023/12/26 10:56:36;;;;;;;7.70;1.40;;;11.30;99.90;;;;;;5138166;28;20442;-65
2023/12/26 10:59:04;;;;;;;8.17;1.57;;;11.20;99.90;;;;;;5139293;28;20441;-65
2023/12/26 13:53:37;;;;;;;4.33;1.90;;;11.40;97.00;;;;;;5137851;27;20739;-65
2023/12/26 13:56:04;;;;;;;7.90;1.50;;;11.20;96.60;;;;;;5102489;27;20486;-66
2023/12/26 13:58:31;;;;;;;6.73;1.53;;;11.20;97.20;;;;;;5137677;27;20433;-65
2023/12/26 14:00:58;;;;;;;8.67;2.17;;;11.10;97.00;;;;;;5120416;27;20462;-66
2023/12/26 14:03:28;;;;;;;5.87;1.73;;;11.00;96.70;;;;;;5138741;27;20438;-65
2023/12/26 14:05:53;;;;;;;8.27;1.83;;;11.00;97.00;;;;;;5137755;27;20527;-66
2023/12/26 14:08:20;;;;;;;13.53;2.67;;;10.90;96.90;;;;;;5135885;27;20478;-65
2023/12/26 14:10:49;;;;;;;6.30;1.50;;;10.80;97.50;;;;;;5135885;27;20975;-66
2023/12/26 14:13:15;;;;;;;5.87;1.53;;;10.80;97.80;;;;;;5136238;27;20437;-65
2023/12/26 14:15:42;;;;;;;6.47;1.43;;;10.80;97.90;;;;;;5136982;27;20453;-66
2023/12/26 14:18:11;;;;;;;11.53;2.00;;;10.70;97.90;;;;;;5137116;27;20438;-65
2023/12/26 14:20:38;;;;;;;12.33;2.70;;;10.70;98.30;;;;;;5136287;27;20834;-66
2023/12/26 14:23:05;;;;;;;7.23;1.90;;;10.60;98.30;;;;;;5137585;27;20453;-66
2023/12/26 14:25:32;;;;;;;11.37;2.03;;;10.70;98.60;;;;;;5138254;27;20446;-66
2023/12/26 14:28:00;;;;;;;10.53;1.70;;;10.60;98.60;;;;;;5137755;27;20826;-65
2023/12/26 14:30:27;;;;;;;9.53;2.13;;;10.70;98.70;;;;;;5118937;27;20554;-65
2023/12/26 14:32:54;;;;;;;6.67;2.00;;;10.70;99.10;;;;;;5138192;27;20464;-65
2023/12/26 14:35:21;;;;;;;6.77;2.43;;;10.70;99.30;;;;;;5138496;27;20468;-66
2023/12/26 14:37:47;;;;;;;5.30;1.77;;;10.70;99.60;;;;;;5138083;27;20446;-66
2023/12/26 14:40:14;;;;;;;6.73;2.20;;;10.70;99.80;;;;;;5138552;28;20458;-65
2023/12/26 14:42:41;;;;;;;6.30;1.80;;;10.80;99.60;;;;;;5138471;28;20437;-66
2023/12/26 14:45:09;;;;;;;6.13;1.90;;;10.80;99.70;;;;;;5139138;28;20452;-66
2023/12/26 14:47:36;;;;;;;7.50;2.87;;;10.80;99.90;;;;;;5138771;28;20488;-65
2023/12/26 14:50:03;;;;;;;7.80;1.77;;;10.80;99.90;;;;;;5138263;28;20462;-65
2023/12/26 14:52:30;;;;;;;7.80;1.67;;;10.80;99.90;;;;;;5138209;28;20442;-66
2023/12/26 14:54:56;;;;;;;8.13;1.83;;;10.80;99.90;;;;;;5138154;28;20454;-66
2023/12/26 14:57:23;;;;;;;5.77;1.77;;;10.80;99.90;;;;;;5138297;28;20434;-65
2023/12/26 14:59:50;;;;;;;10.53;1.50;;;10.80;99.90;;;;;;5137792;28;20505;-65
2023/12/26 15:02:19;;;;;;;8.80;2.27;;;10.80;99.90;;;;;;5119918;28;20449;-66
2023/12/26 15:04:46;;;;;;;12.60;2.37;;;10.80;99.90;;;;;;5142213;27;20442;-66
2023/12/26 15:07:13;;;;;;;9.90;2.40;;;10.80;99.90;;;;;;5142938;27;20485;-66
2023/12/26 15:09:39;;;;;;;9.70;2.30;;;10.80;99.90;;;;;;5143146;27;20488;-66
2023/12/26 15:12:07;;;;;;;4.80;2.00;;;10.70;99.90;;;;;;5140885;27;20438;-66
2023/12/26 15:14:34;;;;;;;9.83;2.60;;;10.70;99.90;;;;;;5139140;27;20441;-66
2023/12/26 15:17:01;;;;;;;8.30;2.20;;;10.70;99.90;;;;;;5139158;27;20815;-66
2023/12/26 15:19:29;;;;;;;10.50;2.03;;;10.70;99.90;;;;;;5139099;27;20462;-66
2023/12/26 15:21:56;;;;;;;10.87;1.70;;;10.70;99.90;;;;;;5139235;27;20448;-66
2023/12/26 15:24:24;;;;;;;6.30;2.30;;;10.60;99.90;;;;;;5139626;27;20438;-66
2023/12/26 15:26:51;;;;;;;9.57;2.20;;;10.60;99.90;;;;;;5139397;27;20809;-65
2023/12/26 15:29:18;;;;;;;4.10;2.07;;;10.70;99.90;;;;;;5139463;27;20476;-66
2023/12/26 15:31:46;;;;;;;9.90;2.07;;;10.70;99.90;;;;;;5139344;27;20437;-66
2023/12/26 15:34:13;;;;;;;6.27;2.03;;;10.60;99.90;;;;;;5139698;27;20548;-66
2023/12/26 15:36:43;;;;;;;11.90;2.77;;;10.50;99.90;;;;;;5139613;27;20452;-65
2023/12/26 15:39:10;;;;;;;5.90;2.20;;;10.50;99.90;;;;;;5138707;27;20439;-65